Costa Victoria — IBLC — position and weather

sailwx.info

Track history (hours):
 
Tides and Currents Weather Stations Pressure Air Temp Water Temp Dewpoint Dewpoint Depression Visibility Wind Speed Wind Dir Waves Ship Positions

Costa Victoria

Last reported at 2019-Oct-12 23:39 UTC. Time now 2019-Dec-12 08:01 UTC.
Position N 44°03' E 013°29'.
Warning: this ship's position is months out of date.

Length 252 m; draft 8.1 m.

Type: Passenger vessel. MMSI: 247109000.

Date/timePositionNaut miles runAvg speedWind from/ knotsBaromVisibWave heightAir tempDewpointWater temp
2019-Oct-12 23:39N 44°03' E 013°29'1120.9
2019-Oct-12 23:08N 44°09' E 013°17'320.7
2019-Oct-12 23:00N 44°11' E 013°14'1020.8
2019-Oct-12 22:30N 44°21' E 013°09'1020.8
2019-Oct-12 22:00N 44°30' E 013°05'1020.8
2019-Oct-12 21:30N 44°40' E 013°01'1020.5
2019-Oct-12 21:00N 44°50' E 012°55'1020.6
2019-Oct-12 20:30N 44°59' E 012°47'1020.2
2019-Oct-12 20:00N 45°07' E 012°40'918.7
2019-Oct-12 19:30N 45°14' E 012°30'816.1
2019-Oct-12 19:00N 45°22' E 012°30'510.2
2019-Oct-12 18:30N 45°26' E 012°25'2 4.9
2019-Oct-12 18:00N 45°26' E 012°21'2 4.2
2019-Oct-12 17:30N 45°26' E 012°18'0 1.0
2019-Oct-12 17:00N 45°26' E 012°18'0 0.0
2019-Oct-12 16:30N 45°26' E 012°18'0 0.0
2019-Oct-12 15:57N 45°26' E 012°18'0 0.0
2019-Oct-12 15:30N 45°26' E 012°18'0 0.0
2019-Oct-12 15:00N 45°26' E 012°18'0 0.0
2019-Oct-12 14:27N 45°26' E 012°18'0 0.0
2019-Oct-12 13:57N 45°26' E 012°18'0 0.0
2019-Oct-12 13:30N 45°26' E 012°18'0 0.0
2019-Oct-12 13:00N 45°26' E 012°18'0 0.0
2019-Oct-12 12:30N 45°26' E 012°18'0 0.0
2019-Oct-12 12:00N 45°26' E 012°18'0 0.0
2019-Oct-12 11:30N 45°26' E 012°18'0 0.0
2019-Oct-12 10:54N 45°26' E 012°18'0 0.0
2019-Oct-12 10:24N 45°26' E 012°18'0 0.0
2019-Oct-12 10:00N 45°26' E 012°18'0 0.0
2019-Oct-12 09:30N 45°26' E 012°18'0 0.0
2019-Oct-12 09:00N 45°26' E 012°18'0 0.0
2019-Oct-12 08:27N 45°26' E 012°18'0 0.0
2019-Oct-12 08:00N 45°26' E 012°18'0 0.0
2019-Oct-12 07:30N 45°26' E 012°18'0 0.0
2019-Oct-12 07:00N 45°26' E 012°18'0 0.0
2019-Oct-12 06:30N 45°26' E 012°18'0 0.0
2019-Oct-12 06:00N 45°26' E 012°18'0 0.0
2019-Oct-12 05:30N 45°26' E 012°18'0 0.0
2019-Oct-12 05:00N 45°26' E 012°18'0 0.0
2019-Oct-12 04:30N 45°26' E 012°18'0 0.0
2019-Oct-12 04:00N 45°26' E 012°18'0 0.0
2019-Oct-12 03:30N 45°26' E 012°18'0 0.1
2019-Oct-12 03:00N 45°26' E 012°18'1 2.8
2019-Oct-12 02:30N 45°26' E 012°20'2 4.6
2019-Oct-12 02:00N 45°26' E 012°23'4 7.7
2019-Oct-12 01:30N 45°24' E 012°28'5 9.8
2019-Oct-12 01:00N 45°21' E 012°34'713.1
2019-Oct-12 00:30N 45°15' E 012°35'816.1
2019-Oct-12 00:00N 45°10' E 012°44'815.9
2019-Oct-11 23:30N 45°03' E 012°51'815.8
2019-Oct-11 23:00N 44°57' E 012°57'816.4
2019-Oct-11 22:30N 44°56' E 013°09'816.3
2019-Oct-11 22:00N 44°56' E 013°20'817.1
2019-Oct-11 21:30N 44°49' E 013°27'1019.2
2019-Oct-11 21:00N 44°41' E 013°35'1019.6
2019-Oct-11 20:30N 44°33' E 013°44'1019.6
2019-Oct-11 20:00N 44°25' E 013°51'1319.8
2019-Oct-11 19:20N 44°14' E 014°02'  
2019-Oct-06 02:33N 44°14' E 013°11'115.4
2019-Oct-06 02:28N 44°16' E 013°11'715.3
2019-Oct-06 01:59N 44°23' E 013°08'715.6
2019-Oct-06 01:30N 44°30' E 013°05'815.5
2019-Oct-06 01:01N 44°37' E 013°01'815.4
2019-Oct-06 00:30N 44°44' E 012°58'815.4
2019-Oct-06 00:00N 44°51' E 012°53'815.4
2019-Oct-05 23:30N 44°58' E 012°48'815.3
2019-Oct-05 23:00N 45°05' E 012°43'815.0
2019-Oct-05 22:30N 45°09' E 012°35'713.5
2019-Oct-05 22:01N 45°15' E 012°30'714.3
2019-Oct-05 21:30N 45°22' E 012°30'5 9.5
2019-Oct-05 21:00N 45°26' E 012°25'3 5.0
2019-Oct-05 20:30N 45°25' E 012°22'2 4.3
2019-Oct-05 20:00N 45°26' E 012°18'0 0.5
2019-Oct-05 19:28N 45°26' E 012°18'0 0.0
2019-Oct-05 18:58N 45°26' E 012°18'0 0.0
2019-Oct-05 18:28N 45°26' E 012°18'0 0.0
2019-Oct-05 17:58N 45°26' E 012°18'0 0.0
2019-Oct-05 17:28N 45°26' E 012°18'0 0.0
2019-Oct-05 16:58N 45°26' E 012°18'0 0.0
2019-Oct-05 16:28N 45°26' E 012°18'0 0.0
2019-Oct-05 15:58N 45°26' E 012°18'0 0.0
2019-Oct-05 15:28N 45°26' E 012°18'0 0.0
2019-Oct-05 14:58N 45°26' E 012°18'0 0.0
2019-Oct-05 14:28N 45°26' E 012°18'0 0.0
2019-Oct-05 13:58N 45°26' E 012°18'0 0.0
2019-Oct-05 13:28N 45°26' E 012°18'0 0.0
2019-Oct-05 12:58N 45°26' E 012°18'0 0.0
2019-Oct-05 12:28N 45°26' E 012°18'0 0.0
2019-Oct-05 11:58N 45°26' E 012°18'0 0.0
2019-Oct-05 11:28N 45°26' E 012°18'0 0.0
2019-Oct-05 10:58N 45°26' E 012°18'0 0.0
2019-Oct-05 10:30N 45°26' E 012°18'1 2.7
2019-Oct-05 10:00N 45°26' E 012°20'2 3.9
2019-Oct-05 09:31N 45°26' E 012°23'4 7.6
2019-Oct-05 09:00N 45°24' E 012°28'510.0
2019-Oct-05 08:30N 45°21' E 012°33'713.0
2019-Oct-05 08:00N 45°15' E 012°36'713.8
2019-Oct-05 07:30N 45°10' E 012°44'713.7
2019-Oct-05 07:00N 45°05' E 012°50'713.7
2019-Oct-05 06:30N 44°59' E 012°54'713.7
2019-Oct-05 06:01N 44°53' E 012°58'713.8
2019-Oct-05 05:31N 44°46' E 013°01'1813.7
2019-Oct-05 04:13N 44°29' E 013°09'  
Track history (hours):
 
Tides and Currents Weather Stations Pressure Air Temp Water Temp Dewpoint Dewpoint Depression Visibility Wind Speed Wind Dir Waves Ship Positions

Costa Victoria

Last reported at 2019-Oct-12 23:39 UTC. Time now 2019-Dec-12 08:01 UTC.
Position N 44°03' E 013°29'.
Warning: this ship's position is months out of date.

Length 252 m; draft 8.1 m.

Type: Passenger vessel. MMSI: 247109000.

Date/timePositionNaut miles runAvg speedWind from/ knotsBaromVisibWave heightAir tempDewpointWater temp
2019-Oct-12 23:39N 44°03' E 013°29'1120.9
2019-Oct-12 23:08N 44°09' E 013°17'320.7
2019-Oct-12 23:00N 44°11' E 013°14'1020.8
2019-Oct-12 22:30N 44°21' E 013°09'1020.8
2019-Oct-12 22:00N 44°30' E 013°05'1020.8
2019-Oct-12 21:30N 44°40' E 013°01'1020.5
2019-Oct-12 21:00N 44°50' E 012°55'1020.6
2019-Oct-12 20:30N 44°59' E 012°47'1020.2
2019-Oct-12 20:00N 45°07' E 012°40'918.7
2019-Oct-12 19:30N 45°14' E 012°30'816.1
2019-Oct-12 19:00N 45°22' E 012°30'510.2
2019-Oct-12 18:30N 45°26' E 012°25'2 4.9
2019-Oct-12 18:00N 45°26' E 012°21'2 4.2
2019-Oct-12 17:30N 45°26' E 012°18'0 1.0
2019-Oct-12 17:00N 45°26' E 012°18'0 0.0
2019-Oct-12 16:30N 45°26' E 012°18'0 0.0
2019-Oct-12 15:57N 45°26' E 012°18'0 0.0
2019-Oct-12 15:30N 45°26' E 012°18'0 0.0
2019-Oct-12 15:00N 45°26' E 012°18'0 0.0
2019-Oct-12 14:27N 45°26' E 012°18'0 0.0
2019-Oct-12 13:57N 45°26' E 012°18'0 0.0
2019-Oct-12 13:30N 45°26' E 012°18'0 0.0
2019-Oct-12 13:00N 45°26' E 012°18'0 0.0
2019-Oct-12 12:30N 45°26' E 012°18'0 0.0
2019-Oct-12 12:00N 45°26' E 012°18'0 0.0
2019-Oct-12 11:30N 45°26' E 012°18'0 0.0
2019-Oct-12 10:54N 45°26' E 012°18'0 0.0
2019-Oct-12 10:24N 45°26' E 012°18'0 0.0
2019-Oct-12 10:00N 45°26' E 012°18'0 0.0
2019-Oct-12 09:30N 45°26' E 012°18'0 0.0
2019-Oct-12 09:00N 45°26' E 012°18'0 0.0
2019-Oct-12 08:27N 45°26' E 012°18'0 0.0
2019-Oct-12 08:00N 45°26' E 012°18'0 0.0
2019-Oct-12 07:30N 45°26' E 012°18'0 0.0
2019-Oct-12 07:00N 45°26' E 012°18'0 0.0
2019-Oct-12 06:30N 45°26' E 012°18'0 0.0
2019-Oct-12 06:00N 45°26' E 012°18'0 0.0
2019-Oct-12 05:30N 45°26' E 012°18'0 0.0
2019-Oct-12 05:00N 45°26' E 012°18'0 0.0
2019-Oct-12 04:30N 45°26' E 012°18'0 0.0
2019-Oct-12 04:00N 45°26' E 012°18'0 0.0
2019-Oct-12 03:30N 45°26' E 012°18'0 0.1
2019-Oct-12 03:00N 45°26' E 012°18'1 2.8
2019-Oct-12 02:30N 45°26' E 012°20'2 4.6
2019-Oct-12 02:00N 45°26' E 012°23'4 7.7
2019-Oct-12 01:30N 45°24' E 012°28'5 9.8
2019-Oct-12 01:00N 45°21' E 012°34'713.1
2019-Oct-12 00:30N 45°15' E 012°35'816.1
2019-Oct-12 00:00N 45°10' E 012°44'815.9
2019-Oct-11 23:30N 45°03' E 012°51'815.8
2019-Oct-11 23:00N 44°57' E 012°57'816.4
2019-Oct-11 22:30N 44°56' E 013°09'816.3
2019-Oct-11 22:00N 44°56' E 013°20'817.1
2019-Oct-11 21:30N 44°49' E 013°27'1019.2
2019-Oct-11 21:00N 44°41' E 013°35'1019.6
2019-Oct-11 20:30N 44°33' E 013°44'1019.6
2019-Oct-11 20:00N 44°25' E 013°51'1319.8
2019-Oct-11 19:20N 44°14' E 014°02'  
2019-Oct-06 02:33N 44°14' E 013°11'115.4
2019-Oct-06 02:28N 44°16' E 013°11'715.3
2019-Oct-06 01:59N 44°23' E 013°08'715.6
2019-Oct-06 01:30N 44°30' E 013°05'815.5
2019-Oct-06 01:01N 44°37' E 013°01'815.4
2019-Oct-06 00:30N 44°44' E 012°58'815.4
2019-Oct-06 00:00N 44°51' E 012°53'815.4
2019-Oct-05 23:30N 44°58' E 012°48'815.3
2019-Oct-05 23:00N 45°05' E 012°43'815.0
2019-Oct-05 22:30N 45°09' E 012°35'713.5
2019-Oct-05 22:01N 45°15' E 012°30'714.3
2019-Oct-05 21:30N 45°22' E 012°30'5 9.5
2019-Oct-05 21:00N 45°26' E 012°25'3 5.0
2019-Oct-05 20:30N 45°25' E 012°22'2 4.3
2019-Oct-05 20:00N 45°26' E 012°18'0 0.5
2019-Oct-05 19:28N 45°26' E 012°18'0 0.0
2019-Oct-05 18:58N 45°26' E 012°18'0 0.0
2019-Oct-05 18:28N 45°26' E 012°18'0 0.0
2019-Oct-05 17:58N 45°26' E 012°18'0 0.0
2019-Oct-05 17:28N 45°26' E 012°18'0 0.0
2019-Oct-05 16:58N 45°26' E 012°18'0 0.0
2019-Oct-05 16:28N 45°26' E 012°18'0 0.0
2019-Oct-05 15:58N 45°26' E 012°18'0 0.0
2019-Oct-05 15:28N 45°26' E 012°18'0 0.0
2019-Oct-05 14:58N 45°26' E 012°18'0 0.0
2019-Oct-05 14:28N 45°26' E 012°18'0 0.0
2019-Oct-05 13:58N 45°26' E 012°18'0 0.0
2019-Oct-05 13:28N 45°26' E 012°18'0 0.0
2019-Oct-05 12:58N 45°26' E 012°18'0 0.0
2019-Oct-05 12:28N 45°26' E 012°18'0 0.0
2019-Oct-05 11:58N 45°26' E 012°18'0 0.0
2019-Oct-05 11:28N 45°26' E 012°18'0 0.0
2019-Oct-05 10:58N 45°26' E 012°18'0 0.0
2019-Oct-05 10:30N 45°26' E 012°18'1 2.7
2019-Oct-05 10:00N 45°26' E 012°20'2 3.9
2019-Oct-05 09:31N 45°26' E 012°23'4 7.6
2019-Oct-05 09:00N 45°24' E 012°28'510.0
2019-Oct-05 08:30N 45°21' E 012°33'713.0
2019-Oct-05 08:00N 45°15' E 012°36'713.8
2019-Oct-05 07:30N 45°10' E 012°44'713.7
2019-Oct-05 07:00N 45°05' E 012°50'713.7
2019-Oct-05 06:30N 44°59' E 012°54'713.7
2019-Oct-05 06:01N 44°53' E 012°58'713.8
2019-Oct-05 05:31N 44°46' E 013°01'1813.7
2019-Oct-05 04:13N 44°29' E 013°09'  

Dump ship's entire track history